sensor_id;sensor_type;location;lat;lon;timestamp;pressure;altitude;pressure_sealevel;temperature;humidity
75699;BME280;64313;51.018;13.742;2022-10-16T00:01:32;99490.06;;;14.11;82.36
75699;BME280;64313;51.018;13.742;2022-10-16T00:03:59;99492.97;;;14.10;82.69
75699;BME280;64313;51.018;13.742;2022-10-16T00:06:26;99503.13;;;14.07;82.86
75699;BME280;64313;51.018;13.742;2022-10-16T00:08:51;99501.50;;;14.06;82.85
75699;BME280;64313;51.018;13.742;2022-10-16T00:11:21;99498.81;;;14.06;82.82
75699;BME280;64313;51.018;13.742;2022-10-16T00:13:49;99507.91;;;14.05;82.98
75699;BME280;64313;51.018;13.742;2022-10-16T00:16:15;99501.69;;;14.05;83.18
75699;BME280;64313;51.018;13.742;2022-10-16T00:18:41;99508.94;;;14.04;83.00
75699;BME280;64313;51.018;13.742;2022-10-16T00:21:12;99512.44;;;14.05;83.31
75699;BME280;64313;51.018;13.742;2022-10-16T00:23:38;99511.63;;;14.04;83.46
75699;BME280;64313;51.018;13.742;2022-10-16T00:26:07;99517.00;;;14.04;83.12
75699;BME280;64313;51.018;13.742;2022-10-16T00:28:32;99516.19;;;14.04;83.27
75699;BME280;64313;51.018;13.742;2022-10-16T00:30:58;99519.69;;;14.04;82.96
75699;BME280;64313;51.018;13.742;2022-10-16T00:33:23;99508.34;;;14.02;83.56
75699;BME280;64313;51.018;13.742;2022-10-16T00:35:49;99511.03;;;14.02;83.30
75699;BME280;64313;51.018;13.742;2022-10-16T00:38:15;99511.03;;;14.02;83.16
75699;BME280;64313;51.018;13.742;2022-10-16T00:40:40;99515.59;;;14.02;83.21
75699;BME280;64313;51.018;13.742;2022-10-16T00:43:13;99523.88;;;14.00;83.04
75699;BME280;64313;51.018;13.742;2022-10-16T00:45:39;99520.38;;;14.00;83.09
75699;BME280;64313;51.018;13.742;2022-10-16T00:48:10;99531.94;;;14.00;83.02
75699;BME280;64313;51.018;13.742;2022-10-16T00:50:37;99533.00;;;13.99;82.86
75699;BME280;64313;51.018;13.742;2022-10-16T00:53:02;99542.94;;;13.99;83.15
75699;BME280;64313;51.018;13.742;2022-10-16T00:55:28;99534.03;;;13.98;82.97
75699;BME280;64313;51.018;13.742;2022-10-16T00:57:56;99535.31;;;13.96;82.68
75699;BME280;64313;51.018;13.742;2022-10-16T01:00:24;99541.94;;;13.93;82.78
75699;BME280;64313;51.018;13.742;2022-10-16T01:02:55;99540.31;;;13.92;82.68
75699;BME280;64313;51.018;13.742;2022-10-16T01:05:22;99539.72;;;13.90;82.83
75699;BME280;64313;51.018;13.742;2022-10-16T01:10:40;99532.56;;;13.84;83.00
75699;BME280;64313;51.018;13.742;2022-10-16T01:13:12;99531.16;;;13.81;83.11
75699;BME280;64313;51.018;13.742;2022-10-16T01:15:56;99527.66;;;13.81;82.98
75699;BME280;64313;51.018;13.742;2022-10-16T01:18:37;99527.06;;;13.79;83.01
75699;BME280;64313;51.018;13.742;2022-10-16T01:21:06;99535.13;;;13.79;83.09
75699;BME280;64313;51.018;13.742;2022-10-16T01:26:20;99538.81;;;13.78;83.35
75699;BME280;64313;51.018;13.742;2022-10-16T01:28:57;99547.13;;;13.76;83.63
75699;BME280;64313;51.018;13.742;2022-10-16T01:31:28;99545.03;;;13.78;83.66
75699;BME280;64313;51.018;13.742;2022-10-16T01:34:03;99552.03;;;13.79;84.19
75699;BME280;64313;51.018;13.742;2022-10-16T01:36:38;99548.53;;;13.79;84.24
75699;BME280;64313;51.018;13.742;2022-10-16T01:39:06;99554.53;;;13.81;83.43
75699;BME280;64313;51.018;13.742;2022-10-16T01:41:39;99567.50;;;13.84;84.17
75699;BME280;64313;51.018;13.742;2022-10-16T01:44:19;99555.09;;;13.83;84.34
75699;BME280;64313;51.018;13.742;2022-10-16T01:46:49;99560.47;;;13.83;84.24
75699;BME280;64313;51.018;13.742;2022-10-16T01:49:17;99563.16;;;13.83;83.95
75699;BME280;64313;51.018;13.742;2022-10-16T01:51:45;99565.41;;;13.86;84.16
75699;BME280;64313;51.018;13.742;2022-10-16T01:54:13;99556.75;;;13.84;83.81
75699;BME280;64313;51.018;13.742;2022-10-16T01:56:40;99555.47;;;13.87;84.37
75699;BME280;64313;51.018;13.742;2022-10-16T01:59:09;99549.88;;;13.88;84.17
75699;BME280;64313;51.018;13.742;2022-10-16T02:01:38;99556.28;;;13.87;84.41
75699;BME280;64313;51.018;13.742;2022-10-16T02:04:13;99567.66;;;13.89;84.50
75699;BME280;64313;51.018;13.742;2022-10-16T02:06:40;99569.28;;;13.90;84.26
75699;BME280;64313;51.018;13.742;2022-10-16T02:09:06;99563.69;;;13.92;84.48
75699;BME280;64313;51.018;13.742;2022-10-16T02:11:31;99565.31;;;13.93;84.25
75699;BME280;64313;51.018;13.742;2022-10-16T02:14:06;99561.34;;;13.95;84.63
75699;BME280;64313;51.018;13.742;2022-10-16T02:16:37;99560.53;;;13.95;84.68
75699;BME280;64313;51.018;13.742;2022-10-16T02:19:04;99563.84;;;13.97;84.34
75699;BME280;64313;51.018;13.742;2022-10-16T02:21:34;99565.47;;;13.98;84.21
75699;BME280;64313;51.018;13.742;2022-10-16T02:24:21;99564.44;;;13.99;83.69
75699;BME280;64313;51.018;13.742;2022-10-16T02:26:54;99561.75;;;13.99;83.77
75699;BME280;64313;51.018;13.742;2022-10-16T02:29:22;99561.50;;;14.00;84.39
75699;BME280;64313;51.018;13.742;2022-10-16T02:31:58;99561.50;;;14.00;84.24
75699;BME280;64313;51.018;13.742;2022-10-16T02:34:26;99565.00;;;14.01;84.57
75699;BME280;64313;51.018;13.742;2022-10-16T02:36:53;99555.09;;;14.01;84.51
75699;BME280;64313;51.018;13.742;2022-10-16T02:39:20;99562.09;;;14.02;84.18
75699;BME280;64313;51.018;13.742;2022-10-16T02:41:46;99562.72;;;14.04;84.19
75699;BME280;64313;51.018;13.742;2022-10-16T02:44:11;99562.47;;;14.06;84.41
75699;BME280;64313;51.018;13.742;2022-10-16T02:46:36;99559.78;;;14.06;84.50
75699;BME280;64313;51.018;13.742;2022-10-16T02:49:01;99562.47;;;14.06;84.97
75699;BME280;64313;51.018;13.742;2022-10-16T02:51:27;99552.56;;;14.06;85.14
75699;BME280;64313;51.018;13.742;2022-10-16T02:53:52;99564.13;;;14.07;85.20
75699;BME280;64313;51.018;13.742;2022-10-16T02:56:17;99557.69;;;14.08;84.88
75699;BME280;64313;51.018;13.742;2022-10-16T02:58:43;99564.94;;;14.07;84.92
75699;BME280;64313;51.018;13.742;2022-10-16T03:01:08;99557.69;;;14.08;84.46
75699;BME280;64313;51.018;13.742;2022-10-16T03:03:33;99555.00;;;14.08;84.60
75699;BME280;64313;51.018;13.742;2022-10-16T03:05:59;99551.28;;;14.09;84.60
75699;BME280;64313;51.018;13.742;2022-10-16T03:08:24;99545.09;;;14.09;84.49
75699;BME280;64313;51.018;13.742;2022-10-16T03:10:50;99546.72;;;14.10;84.80
75699;BME280;64313;51.018;13.742;2022-10-16T03:13:16;99548.59;;;14.09;84.56
75699;BME280;64313;51.018;13.742;2022-10-16T03:15:41;99549.41;;;14.10;84.62
75699;BME280;64313;51.018;13.742;2022-10-16T03:18:06;99559.34;;;14.09;84.38
75699;BME280;64313;51.018;13.742;2022-10-16T03:20:32;99566.59;;;14.09;84.47
75699;BME280;64313;51.018;13.742;2022-10-16T03:22:57;99571.97;;;14.09;84.28
75699;BME280;64313;51.018;13.742;2022-10-16T03:25:23;99573.59;;;14.10;84.65
75699;BME280;64313;51.018;13.742;2022-10-16T03:27:48;99576.28;;;14.10;84.32
75699;BME280;64313;51.018;13.742;2022-10-16T03:30:13;99571.97;;;14.09;84.20
75699;BME280;64313;51.018;13.742;2022-10-16T03:32:39;99585.16;;;14.10;84.45
75699;BME280;64313;51.018;13.742;2022-10-16T03:35:04;99580.84;;;14.09;84.54
75699;BME280;64313;51.018;13.742;2022-10-16T03:37:30;99576.28;;;14.10;84.46
75699;BME280;64313;51.018;13.742;2022-10-16T03:39:55;99580.84;;;14.09;84.09
75699;BME280;64313;51.018;13.742;2022-10-16T03:42:20;99577.91;;;14.11;84.53
75699;BME280;64313;51.018;13.742;2022-10-16T03:44:45;99580.59;;;14.11;84.54
75699;BME280;64313;51.018;13.742;2022-10-16T03:47:11;99584.13;;;14.11;84.80
75699;BME280;64313;51.018;13.742;2022-10-16T03:49:36;99591.34;;;14.11;84.58
75699;BME280;64313;51.018;13.742;2022-10-16T03:52:01;99599.41;;;14.11;84.31
75699;BME280;64313;51.018;13.742;2022-10-16T03:54:26;99593.00;;;14.12;84.33
75699;BME280;64313;51.018;13.742;2022-10-16T03:56:52;99589.28;;;14.13;84.56
75699;BME280;64313;51.018;13.742;2022-10-16T03:59:17;99590.09;;;14.13;84.28
75699;BME280;64313;51.018;13.742;2022-10-16T04:01:42;99603.31;;;14.15;83.97
75699;BME280;64313;51.018;13.742;2022-10-16T04:04:08;99597.94;;;14.15;84.76
75699;BME280;64313;51.018;13.742;2022-10-16T04:06:33;99597.13;;;14.14;84.64
75699;BME280;64313;51.018;13.742;2022-10-16T04:08:58;99600.84;;;14.13;84.67
75699;BME280;64313;51.018;13.742;2022-10-16T04:11:24;99606.00;;;14.15;84.93
75699;BME280;64313;51.018;13.742;2022-10-16T04:13:49;99606.22;;;14.13;85.03
75699;BME280;64313;51.018;13.742;2022-10-16T04:16:14;99606.00;;;14.15;84.97
75699;BME280;64313;51.018;13.742;2022-10-16T04:18:40;99620.25;;;14.15;85.02
75699;BME280;64313;51.018;13.742;2022-10-16T04:21:06;99630.19;;;14.15;85.17
75699;BME280;64313;51.018;13.742;2022-10-16T04:23:31;99628.56;;;14.14;85.03
75699;BME280;64313;51.018;13.742;2022-10-16T04:25:57;99624.22;;;14.13;84.88
75699;BME280;64313;51.018;13.742;2022-10-16T04:28:22;99618.03;;;14.12;84.97
75699;BME280;64313;51.018;13.742;2022-10-16T04:30:47;99605.63;;;14.11;84.78
75699;BME280;64313;51.018;13.742;2022-10-16T04:33:13;99605.63;;;14.11;84.50
75699;BME280;64313;51.018;13.742;2022-10-16T04:35:38;99612.84;;;14.11;84.10
75699;BME280;64313;51.018;13.742;2022-10-16T04:38:04;99620.94;;;14.11;84.53
75699;BME280;64313;51.018;13.742;2022-10-16T04:40:29;99627.97;;;14.12;84.74
75699;BME280;64313;51.018;13.742;2022-10-16T04:42:58;99628.56;;;14.14;84.57
75699;BME280;64313;51.018;13.742;2022-10-16T04:45:23;99634.97;;;14.13;85.14
75699;BME280;64313;51.018;13.742;2022-10-16T04:47:49;99622.59;;;14.12;85.16
75699;BME280;64313;51.018;13.742;2022-10-16T04:50:14;99629.59;;;14.13;84.87
75699;BME280;64313;51.018;13.742;2022-10-16T04:52:39;99630.41;;;14.13;85.00
75699;BME280;64313;51.018;13.742;2022-10-16T04:55:05;99632.28;;;14.13;84.91
75699;BME280;64313;51.018;13.742;2022-10-16T04:57:30;99627.72;;;14.13;84.96
75699;BME280;64313;51.018;13.742;2022-10-16T04:59:56;99629.38;;;14.14;85.16
75699;BME280;64313;51.018;13.742;2022-10-16T05:02:21;99619.44;;;14.15;84.89
75699;BME280;64313;51.018;13.742;2022-10-16T05:04:46;99624.81;;;14.15;85.09
75699;BME280;64313;51.018;13.742;2022-10-16T05:07:12;99630.19;;;14.15;85.06
75699;BME280;64313;51.018;13.742;2022-10-16T05:09:37;99624.00;;;14.14;84.93
75699;BME280;64313;51.018;13.742;2022-10-16T05:12:02;99626.69;;;14.14;85.06
75699;BME280;64313;51.018;13.742;2022-10-16T05:14:28;99637.19;;;14.16;85.11
75699;BME280;64313;51.018;13.742;2022-10-16T05:16:54;99632.06;;;14.14;85.27
75699;BME280;64313;51.018;13.742;2022-10-16T05:19:19;99637.44;;;14.14;84.81
75699;BME280;64313;51.018;13.742;2022-10-16T05:21:44;99635.56;;;14.15;84.67
75699;BME280;64313;51.018;13.742;2022-10-16T05:24:10;99641.75;;;14.15;84.91
75699;BME280;64313;51.018;13.742;2022-10-16T05:26:35;99642.56;;;14.16;84.72
75699;BME280;64313;51.018;13.742;2022-10-16T05:29:00;99632.88;;;14.15;84.94
75699;BME280;64313;51.018;13.742;2022-10-16T05:31:25;99640.72;;;14.16;84.64
75699;BME280;64313;51.018;13.742;2022-10-16T05:33:51;99642.56;;;14.16;85.28
75699;BME280;64313;51.018;13.742;2022-10-16T05:36:16;99649.00;;;14.15;85.07
75699;BME280;64313;51.018;13.742;2022-10-16T05:38:43;99649.81;;;14.15;85.00
75699;BME280;64313;51.018;13.742;2022-10-16T05:41:08;99641.75;;;14.15;85.00
75699;BME280;64313;51.018;13.742;2022-10-16T05:43:33;99638.25;;;14.15;84.99
75699;BME280;64313;51.018;13.742;2022-10-16T05:46:01;99651.69;;;14.15;84.66
75699;BME280;64313;51.018;13.742;2022-10-16T05:48:27;99662.44;;;14.15;84.58
75699;BME280;64313;51.018;13.742;2022-10-16T05:50:59;99659.97;;;14.13;84.33
75699;BME280;64313;51.018;13.742;2022-10-16T05:53:27;99660.81;;;14.14;84.65
75699;BME280;64313;51.018;13.742;2022-10-16T05:55:53;99672.59;;;14.13;84.90
75699;BME280;64313;51.018;13.742;2022-10-16T05:58:19;99674.47;;;14.12;85.05
75699;BME280;64313;51.018;13.742;2022-10-16T06:00:44;99685.44;;;14.11;84.91
75699;BME280;64313;51.018;13.742;2022-10-16T06:03:10;99679.03;;;14.12;84.90
75699;BME280;64313;51.018;13.742;2022-10-16T06:05:35;99677.38;;;14.11;85.07
75699;BME280;64313;51.018;13.742;2022-10-16T06:08:00;99679.03;;;14.12;84.56
75699;BME280;64313;51.018;13.742;2022-10-16T06:10:25;99684.41;;;14.12;84.70
75699;BME280;64313;51.018;13.742;2022-10-16T06:12:50;99687.91;;;14.12;84.93
75699;BME280;64313;51.018;13.742;2022-10-16T06:15:16;99689.78;;;14.12;84.46
75699;BME280;64313;51.018;13.742;2022-10-16T06:17:41;99691.41;;;14.13;84.47
75699;BME280;64313;51.018;13.742;2022-10-16T06:20:06;99695.75;;;14.14;84.72
75699;BME280;64313;51.018;13.742;2022-10-16T06:22:32;99692.22;;;14.13;84.99
75699;BME280;64313;51.018;13.742;2022-10-16T06:24:57;99695.75;;;14.14;84.75
75699;BME280;64313;51.018;13.742;2022-10-16T06:27:22;99704.66;;;14.14;84.65
75699;BME280;64313;51.018;13.742;2022-10-16T06:29:47;99709.78;;;14.16;84.81
75699;BME280;64313;51.018;13.742;2022-10-16T06:32:13;99708.75;;;14.17;85.13
75699;BME280;64313;51.018;13.742;2022-10-16T06:34:38;99713.06;;;14.18;84.63
75699;BME280;64313;51.018;13.742;2022-10-16T06:37:05;99711.00;;;14.20;84.65
75699;BME280;64313;51.018;13.742;2022-10-16T06:39:30;99711.59;;;14.22;84.84
75699;BME280;64313;51.018;13.742;2022-10-16T06:41:55;99719.41;;;14.23;84.60
75699;BME280;64313;51.018;13.742;2022-10-16T06:44:21;99726.22;;;14.26;84.73
75699;BME280;64313;51.018;13.742;2022-10-16T06:46:46;99724.13;;;14.28;85.05
75699;BME280;64313;51.018;13.742;2022-10-16T06:49:11;99731.75;;;14.31;85.17
75699;BME280;64313;51.018;13.742;2022-10-16T06:51:36;99734.00;;;14.34;84.57
75699;BME280;64313;51.018;13.742;2022-10-16T06:54:05;99739.16;;;14.36;84.82
75699;BME280;64313;51.018;13.742;2022-10-16T06:56:32;99728.78;;;14.39;84.69
75699;BME280;64313;51.018;13.742;2022-10-16T06:58:58;99738.03;;;14.43;85.10
75699;BME280;64313;51.018;13.742;2022-10-16T07:01:25;99748.38;;;14.46;85.22
75699;BME280;64313;51.018;13.742;2022-10-16T07:03:50;99750.00;;;14.47;85.04
75699;BME280;64313;51.018;13.742;2022-10-16T07:06:18;99747.66;;;14.51;85.50
75699;BME280;64313;51.018;13.742;2022-10-16T07:08:45;99748.50;;;14.52;85.78
75699;BME280;64313;51.018;13.742;2022-10-16T07:11:13;99751.81;;;14.54;85.10
75699;BME280;64313;51.018;13.742;2022-10-16T07:13:40;99745.41;;;14.55;84.95
75699;BME280;64313;51.018;13.742;2022-10-16T07:16:07;99752.41;;;14.56;84.55
75699;BME280;64313;51.018;13.742;2022-10-16T07:18:33;99753.81;;;14.58;85.45
75699;BME280;64313;51.018;13.742;2022-10-16T07:21:06;99757.13;;;14.60;84.82
75699;BME280;64313;51.018;13.742;2022-10-16T07:23:32;99764.97;;;14.62;85.39
75699;BME280;64313;51.018;13.742;2022-10-16T07:25:58;99770.94;;;14.64;85.94
75699;BME280;64313;51.018;13.742;2022-10-16T07:28:23;99779.41;;;14.67;85.38
75699;BME280;64313;51.018;13.742;2022-10-16T07:30:48;99793.44;;;14.69;85.72
75699;BME280;64313;51.018;13.742;2022-10-16T07:33:14;99796.97;;;14.70;84.77
75699;BME280;64313;51.018;13.742;2022-10-16T07:35:48;99806.25;;;14.74;84.95
75699;BME280;64313;51.018;13.742;2022-10-16T07:38:13;99798.97;;;14.75;86.18
75699;BME280;64313;51.018;13.742;2022-10-16T07:40:38;99807.88;;;14.75;86.15
75699;BME280;64313;51.018;13.742;2022-10-16T07:43:04;99809.28;;;14.78;85.35
75699;BME280;64313;51.018;13.742;2022-10-16T07:45:30;99814.47;;;14.79;85.12
75699;BME280;64313;51.018;13.742;2022-10-16T07:47:55;99817.72;;;14.81;85.70
75699;BME280;64313;51.018;13.742;2022-10-16T07:50:20;99817.31;;;14.84;85.21
75699;BME280;64313;51.018;13.742;2022-10-16T07:52:46;99820.56;;;14.86;85.18
75699;BME280;64313;51.018;13.742;2022-10-16T07:55:11;99824.69;;;14.89;85.52
75699;BME280;64313;51.018;13.742;2022-10-16T07:57:36;99827.16;;;14.90;85.73
75699;BME280;64313;51.018;13.742;2022-10-16T08:00:02;99827.75;;;14.92;85.68
75699;BME280;64313;51.018;13.742;2022-10-16T08:02:27;99830.00;;;14.96;85.57
75699;BME280;64313;51.018;13.742;2022-10-16T08:04:53;99835.97;;;14.98;85.79
75699;BME280;64313;51.018;13.742;2022-10-16T08:07:18;99824.75;;;15.01;85.68
75699;BME280;64313;51.018;13.742;2022-10-16T08:09:43;99808.13;;;15.04;85.82
75699;BME280;64313;51.018;13.742;2022-10-16T08:12:08;99799.41;;;15.08;85.44
75699;BME280;64313;51.018;13.742;2022-10-16T08:14:35;99794.41;;;15.12;85.81
75699;BME280;64313;51.018;13.742;2022-10-16T08:17:01;99802.81;;;15.15;85.39
75699;BME280;64313;51.018;13.742;2022-10-16T08:19:27;99816.66;;;15.19;85.92
75699;BME280;64313;51.018;13.742;2022-10-16T08:21:52;99810.84;;;15.22;85.71
75699;BME280;64313;51.018;13.742;2022-10-16T08:24:18;99812.25;;;15.25;85.57
75699;BME280;64313;51.018;13.742;2022-10-16T08:26:43;99815.28;;;15.28;85.85
75699;BME280;64313;51.018;13.742;2022-10-16T08:29:08;99806.75;;;15.31;85.02
75699;BME280;64313;51.018;13.742;2022-10-16T08:31:33;99818.72;;;15.35;85.33
75699;BME280;64313;51.018;13.742;2022-10-16T08:33:59;99816.63;;;15.38;85.31
75699;BME280;64313;51.018;13.742;2022-10-16T08:36:24;99821.56;;;15.41;85.21
75699;BME280;64313;51.018;13.742;2022-10-16T08:38:50;99828.97;;;15.45;85.57
75699;BME280;64313;51.018;13.742;2022-10-16T08:41:38;99831.19;;;15.48;84.57
75699;BME280;64313;51.018;13.742;2022-10-16T08:44:24;99826.16;;;15.52;84.92
75699;BME280;64313;51.018;13.742;2022-10-16T08:49:41;99824.78;;;15.61;85.30
75699;BME280;64313;51.018;13.742;2022-10-16T08:52:12;99817.91;;;15.65;84.52
75699;BME280;64313;51.018;13.742;2022-10-16T08:54:42;99821.34;;;15.72;85.39
75699;BME280;64313;51.018;13.742;2022-10-16T08:57:18;99826.03;;;15.77;84.26
75699;BME280;64313;51.018;13.742;2022-10-16T08:59:45;99821.59;;;15.83;84.64
75699;BME280;64313;51.018;13.742;2022-10-16T09:07:30;99822.00;;;15.98;83.69
75699;BME280;64313;51.018;13.742;2022-10-16T09:12:55;99805.25;;;16.08;84.10
75699;BME280;64313;51.018;13.742;2022-10-16T09:15:48;99806.41;;;16.12;83.99
75699;BME280;64313;51.018;13.742;2022-10-16T09:20:59;99808.31;;;16.23;83.67
75699;BME280;64313;51.018;13.742;2022-10-16T09:23:30;99821.66;;;16.30;83.98
75699;BME280;64313;51.018;13.742;2022-10-16T09:25:58;99827.16;;;16.35;83.61
75699;BME280;64313;51.018;13.742;2022-10-16T09:28:23;99823.78;;;16.39;83.50
75699;BME280;64313;51.018;13.742;2022-10-16T09:30:49;99834.66;;;16.44;83.44
75699;BME280;64313;51.018;13.742;2022-10-16T09:33:18;99819.41;;;16.50;83.46
75699;BME280;64313;51.018;13.742;2022-10-16T09:35:47;99832.22;;;16.55;84.27
75699;BME280;64313;51.018;13.742;2022-10-16T09:38:26;99826.91;;;16.60;83.33
75699;BME280;64313;51.018;13.742;2022-10-16T09:40:54;99831.63;;;16.64;84.27
75699;BME280;64313;51.018;13.742;2022-10-16T09:45:58;99837.25;;;16.75;83.41
75699;BME280;64313;51.018;13.742;2022-10-16T09:48:33;99843.03;;;16.78;83.63
75699;BME280;64313;51.018;13.742;2022-10-16T09:51:03;99834.78;;;16.85;83.06
75699;BME280;64313;51.018;13.742;2022-10-16T09:53:46;99836.56;;;16.91;82.56
75699;BME280;64313;51.018;13.742;2022-10-16T09:56:21;99845.31;;;16.98;81.90
75699;BME280;64313;51.018;13.742;2022-10-16T09:58:55;99849.56;;;17.06;82.40
75699;BME280;64313;51.018;13.742;2022-10-16T10:01:23;99848.25;;;17.08;81.87
75699;BME280;64313;51.018;13.742;2022-10-16T10:03:50;99850.81;;;17.15;81.91
75699;BME280;64313;51.018;13.742;2022-10-16T10:06:26;99852.56;;;17.21;81.02
75699;BME280;64313;51.018;13.742;2022-10-16T10:09:28;99853.22;;;17.28;80.31
75699;BME280;64313;51.018;13.742;2022-10-16T10:12:03;99855.56;;;17.37;79.05
75699;BME280;64313;51.018;13.742;2022-10-16T10:14:35;99863.53;;;17.43;79.48
75699;BME280;64313;51.018;13.742;2022-10-16T10:27:34;99867.38;;;17.76;77.03
75699;BME280;64313;51.018;13.742;2022-10-16T10:30:15;99876.19;;;17.83;76.65
75699;BME280;64313;51.018;13.742;2022-10-16T10:47:17;99874.59;;;18.33;75.84
75699;BME280;64313;51.018;13.742;2022-10-16T10:58:05;99876.53;;;18.71;73.57
75699;BME280;64313;51.018;13.742;2022-10-16T11:06:24;99874.84;;;19.04;72.68
75699;BME280;64313;51.018;13.742;2022-10-16T11:09:09;99873.59;;;19.12;73.08
75699;BME280;64313;51.018;13.742;2022-10-16T11:14:18;99874.72;;;19.16;71.72
75699;BME280;64313;51.018;13.742;2022-10-16T11:16:58;99878.81;;;19.18;71.33
75699;BME280;64313;51.018;13.742;2022-10-16T11:19:50;99875.66;;;19.27;69.68
75699;BME280;64313;51.018;13.742;2022-10-16T11:22:24;99875.50;;;19.33;70.72
75699;BME280;64313;51.018;13.742;2022-10-16T11:27:41;99877.69;;;19.36;69.58
75699;BME280;64313;51.018;13.742;2022-10-16T11:30:29;99880.47;;;19.41;68.45
75699;BME280;64313;51.018;13.742;2022-10-16T11:38:48;99880.56;;;19.52;69.42
75699;BME280;64313;51.018;13.742;2022-10-16T11:41:39;99881.38;;;19.52;69.31
75699;BME280;64313;51.018;13.742;2022-10-16T11:47:12;99887.38;;;19.54;69.66
75699;BME280;64313;51.018;13.742;2022-10-16T11:49:40;99886.81;;;19.52;69.16
75699;BME280;64313;51.018;13.742;2022-10-16T11:52:24;99887.38;;;19.54;69.92
75699;BME280;64313;51.018;13.742;2022-10-16T11:55:03;99884.78;;;19.64;68.43
75699;BME280;64313;51.018;13.742;2022-10-16T11:57:35;99891.66;;;19.72;69.09
75699;BME280;64313;51.018;13.742;2022-10-16T12:00:09;99893.91;;;19.80;67.18
75699;BME280;64313;51.018;13.742;2022-10-16T12:02:56;99902.44;;;19.89;68.62
75699;BME280;64313;51.018;13.742;2022-10-16T12:05:26;99891.34;;;19.96;66.91
75699;BME280;64313;51.018;13.742;2022-10-16T12:08:24;99891.66;;;19.99;67.40
75699;BME280;64313;51.018;13.742;2022-10-16T12:10:50;99899.56;;;20.01;66.91
75699;BME280;64313;51.018;13.742;2022-10-16T12:13:38;99883.56;;;20.04;67.38
75699;BME280;64313;51.018;13.742;2022-10-16T12:18:36;99897.75;;;20.12;67.37
75699;BME280;64313;51.018;13.742;2022-10-16T12:21:02;99892.34;;;20.12;67.30
75699;BME280;64313;51.018;13.742;2022-10-16T12:23:33;99900.47;;;20.12;67.18
75699;BME280;64313;51.018;13.742;2022-10-16T12:26:01;99904.28;;;20.16;66.98
75699;BME280;64313;51.018;13.742;2022-10-16T12:28:29;99890.47;;;20.17;66.86
75699;BME280;64313;51.018;13.742;2022-10-16T12:30:58;99898.63;;;20.17;66.78
75699;BME280;64313;51.018;13.742;2022-10-16T12:33:33;99898.63;;;20.17;66.53
75699;BME280;64313;51.018;13.742;2022-10-16T12:36:01;99902.13;;;20.18;66.29
75699;BME280;64313;51.018;13.742;2022-10-16T12:38:30;99900.50;;;20.17;66.99
75699;BME280;64313;51.018;13.742;2022-10-16T12:41:05;99900.50;;;20.17;66.07
75699;BME280;64313;51.018;13.742;2022-10-16T12:43:37;99902.66;;;20.15;66.99
75699;BME280;64313;51.018;13.742;2022-10-16T12:48:35;99914.91;;;20.17;65.03
75699;BME280;64313;51.018;13.742;2022-10-16T12:54:30;99914.34;;;20.15;65.79
75699;BME280;64313;51.018;13.742;2022-10-16T12:57:10;99909.47;;;20.17;66.05
75699;BME280;64313;51.018;13.742;2022-10-16T13:20:33;99917.47;;;20.29;66.27
75699;BME280;64313;51.018;13.742;2022-10-16T13:23:13;99911.47;;;20.27;66.60
75699;BME280;64313;51.018;13.742;2022-10-16T13:25:54;99916.31;;;20.25;66.02
75699;BME280;64313;51.018;13.742;2022-10-16T13:28:27;99915.22;;;20.26;65.21
75699;BME280;64313;51.018;13.742;2022-10-16T13:30:56;99911.72;;;20.25;66.16
75699;BME280;64313;51.018;13.742;2022-10-16T13:33:37;99909.00;;;20.25;65.93
75699;BME280;64313;51.018;13.742;2022-10-16T13:36:05;99912.78;;;20.24;65.86
75699;BME280;64313;51.018;13.742;2022-10-16T13:38:35;99910.31;;;20.23;65.65
75699;BME280;64313;51.018;13.742;2022-10-16T13:41:02;99909.28;;;20.24;65.33
75699;BME280;64313;51.018;13.742;2022-10-16T13:43:35;99909.00;;;20.25;65.45
75699;BME280;64313;51.018;13.742;2022-10-16T13:46:14;99912.78;;;20.24;66.37
75699;BME280;64313;51.018;13.742;2022-10-16T13:48:41;99914.13;;;20.22;67.79
75699;BME280;64313;51.018;13.742;2022-10-16T13:51:17;99928.22;;;20.19;68.51
75699;BME280;64313;51.018;13.742;2022-10-16T13:53:44;99924.94;;;20.17;69.75
75699;BME280;64313;51.018;13.742;2022-10-16T13:56:15;99918.13;;;20.14;69.65
75699;BME280;64313;51.018;13.742;2022-10-16T13:58:41;99929.25;;;20.13;68.63
75699;BME280;64313;51.018;13.742;2022-10-16T14:03:44;99928.66;;;20.10;69.47
75699;BME280;64313;51.018;13.742;2022-10-16T14:06:13;99927.03;;;20.09;68.64
75699;BME280;64313;51.018;13.742;2022-10-16T14:08:43;99935.44;;;20.08;69.09
75699;BME280;64313;51.018;13.742;2022-10-16T14:11:10;99939.47;;;20.05;68.76
75699;BME280;64313;51.018;13.742;2022-10-16T14:13:43;99937.03;;;20.04;70.16
75699;BME280;64313;51.018;13.742;2022-10-16T14:16:11;99941.09;;;20.01;69.05
75699;BME280;64313;51.018;13.742;2022-10-16T14:18:46;99942.41;;;19.99;69.76
75699;BME280;64313;51.018;13.742;2022-10-16T14:21:14;99946.19;;;19.98;70.26
75699;BME280;64313;51.018;13.742;2022-10-16T14:23:41;99947.28;;;19.97;70.38
75699;BME280;64313;51.018;13.742;2022-10-16T14:26:12;99952.13;;;19.95;71.11
75699;BME280;64313;51.018;13.742;2022-10-16T14:28:41;99945.88;;;19.94;70.61
75699;BME280;64313;51.018;13.742;2022-10-16T14:33:44;99940.97;;;19.91;71.11
75699;BME280;64313;51.018;13.742;2022-10-16T14:38:37;99939.31;;;19.90;70.70
75699;BME280;64313;51.018;13.742;2022-10-16T14:41:03;99942.56;;;19.87;71.13
75699;BME280;64313;51.018;13.742;2022-10-16T14:43:39;99945.50;;;19.85;71.27
75699;BME280;64313;51.018;13.742;2022-10-16T14:46:15;99943.06;;;19.84;71.53
75699;BME280;64313;51.018;13.742;2022-10-16T14:48:43;99952.25;;;19.83;72.36
75699;BME280;64313;51.018;13.742;2022-10-16T14:51:14;99953.34;;;19.82;72.13